Time;durP1;ratioP1;P1;durP2;ratioP2;P2;SDS_P1;SDS_P2;PMS_P1;PMS_P2;Temp;Humidity;BMP_temperature;BMP_pressure;BME280_temperature;BME280_humidity;BME280_pressure;Samples;Min_cycle;Max_cycle;Signal;HPM_P1;HPM_P2
2022/04/21 00:00:36;;;;;;;4.80;3.10;;;10.20;91.60;;;;;;4993513;28;20237;-42
2022/04/21 00:03:03;;;;;;;5.00;2.67;;;10.20;91.60;;;;;;5009115;23;20063;-47
2022/04/21 00:05:29;;;;;;;4.38;3.60;;;10.20;91.60;;;;;;4989055;28;20018;-46
2022/04/21 00:07:55;;;;;;;3.90;3.47;;;10.20;91.70;;;;;;4973253;28;20034;-47
2022/04/21 00:10:22;;;;;;;4.60;3.10;;;10.20;91.70;;;;;;4974146;28;20031;-52
2022/04/21 00:12:48;;;;;;;3.50;3.15;;;10.10;91.80;;;;;;4969566;28;20027;-46
2022/04/21 00:15:14;;;;;;;5.78;3.40;;;10.00;92.00;;;;;;4953319;28;20027;-46
2022/04/21 00:17:39;;;;;;;4.18;3.75;;;9.90;92.10;;;;;;4953030;29;20487;-46
2022/04/21 00:20:06;;;;;;;5.75;3.03;;;10.00;92.20;;;;;;4954431;29;20110;-48
2022/04/21 00:23:33;;;;;;;3.75;2.97;;;9.90;92.30;;;;;;4954454;28;20566;-47
2022/04/21 00:25:27;;;;;;;4.70;2.90;;;9.90;92.20;;;;;;4953590;28;20047;-46
2022/04/21 00:27:53;;;;;;;5.63;3.67;;;9.90;92.20;;;;;;4954150;28;20103;-49
2022/04/21 00:30:18;;;;;;;3.45;3.15;;;10.00;92.70;;;;;;4954237;29;20510;-48
2022/04/21 00:32:46;;;;;;;5.90;3.00;;;10.00;92.50;;;;;;4969161;28;20031;-50
2022/04/21 00:35:13;;;;;;;8.07;3.25;;;10.10;92.00;;;;;;4954384;28;20098;-49
2022/04/21 00:37:56;;;;;;;4.65;2.63;;;10.00;92.00;;;;;;4968695;28;20036;-52
2022/04/21 00:40:26;;;;;;;3.40;3.10;;;10.00;92.10;;;;;;4954699;28;20033;-46
2022/04/21 00:42:51;;;;;;;3.90;3.58;;;9.90;92.10;;;;;;4954272;28;20027;-45
2022/04/21 00:45:17;;;;;;;3.33;3.05;;;9.90;92.20;;;;;;4954176;28;20066;-46
2022/04/21 00:47:45;;;;;;;4.30;3.20;;;9.90;92.20;;;;;;4953993;28;20037;-49
2022/04/21 00:50:16;;;;;;;6.05;3.25;;;9.90;92.20;;;;;;4954131;28;20027;-51
2022/04/21 00:52:42;;;;;;;5.43;3.30;;;9.80;92.40;;;;;;4953936;28;20403;-45
2022/04/21 00:55:09;;;;;;;4.07;3.78;;;9.80;92.40;;;;;;4954054;29;20027;-47
2022/04/21 00:57:35;;;;;;;4.97;3.30;;;9.80;92.30;;;;;;4953544;28;20078;-50
2022/04/21 01:00:04;;;;;;;4.03;3.17;;;9.80;92.50;;;;;;4953999;29;20031;-48
2022/04/21 01:05:32;;;;;;;4.05;3.08;;;9.80;92.70;;;;;;4953877;29;20038;-50
2022/04/21 01:08:16;;;;;;;6.28;3.03;;;9.80;92.60;;;;;;4953798;28;20023;-48
2022/04/21 01:10:42;;;;;;;3.67;3.25;;;9.80;92.90;;;;;;4953597;28;20031;-47
2022/04/21 01:13:10;;;;;;;2.85;2.65;;;9.80;93.00;;;;;;4953506;28;20027;-48
2022/04/21 01:15:37;;;;;;;3.22;2.80;;;9.80;93.10;;;;;;4953435;29;20024;-46
2022/04/21 01:18:04;;;;;;;3.78;3.35;;;9.80;93.30;;;;;;4953225;28;20023;-44
2022/04/21 01:20:30;;;;;;;3.85;2.90;;;9.80;93.20;;;;;;4952791;28;20024;-48
2022/04/21 01:22:55;;;;;;;3.55;3.22;;;9.80;92.90;;;;;;4952097;29;20154;-46
2022/04/21 01:25:21;;;;;;;3.70;2.85;;;9.90;92.80;;;;;;4953502;29;20027;-47
2022/04/21 01:27:50;;;;;;;5.32;3.70;;;9.90;92.90;;;;;;4953164;29;20380;-48
2022/04/21 01:30:16;;;;;;;8.80;3.47;;;9.90;92.70;;;;;;4953262;28;20031;-49
2022/04/21 01:32:44;;;;;;;4.88;4.13;;;9.90;92.50;;;;;;4953357;28;20526;-45
2022/04/21 01:35:11;;;;;;;7.35;3.63;;;9.80;92.60;;;;;;4953403;28;20027;-47
2022/04/21 01:43:07;;;;;;;3.75;3.30;;;9.70;93.00;;;;;;4953332;29;20093;-47
2022/04/21 01:45:33;;;;;;;6.13;3.95;;;9.60;93.10;;;;;;4953271;28;20031;-50
2022/04/21 01:47:59;;;;;;;6.65;3.75;;;9.60;93.30;;;;;;4952946;28;20035;-48
2022/04/21 01:50:25;;;;;;;6.05;3.65;;;9.50;93.40;;;;;;4953170;28;20496;-48
2022/04/21 01:52:52;;;;;;;5.43;4.18;;;9.50;93.60;;;;;;4953173;28;20067;-48
2022/04/21 01:55:18;;;;;;;5.43;3.95;;;9.40;93.60;;;;;;4953424;29;20034;-46
2022/04/21 01:57:43;;;;;;;8.23;4.40;;;9.40;93.70;;;;;;4953130;28;20035;-45
2022/04/21 02:00:10;;;;;;;11.82;4.15;;;9.40;93.90;;;;;;4951924;28;20087;-45
2022/04/21 02:02:35;;;;;;;4.40;4.00;;;9.30;93.90;;;;;;4953015;28;20020;-45
2022/04/21 02:05:02;;;;;;;4.20;3.47;;;9.30;94.10;;;;;;4953183;28;20542;-47
2022/04/21 02:07:28;;;;;;;4.65;4.03;;;9.30;94.10;;;;;;4952821;28;20031;-47
2022/04/21 02:09:55;;;;;;;5.32;3.60;;;9.40;94.20;;;;;;4952892;28;20143;-45
2022/04/21 02:12:21;;;;;;;4.65;4.25;;;9.30;94.10;;;;;;4953010;28;20448;-46
2022/04/21 02:14:47;;;;;;;7.93;4.00;;;9.30;94.30;;;;;;4952951;28;20429;-46
2022/04/21 02:17:12;;;;;;;6.03;4.00;;;9.20;94.40;;;;;;4952747;29;20480;-49
2022/04/21 02:19:38;;;;;;;5.82;4.38;;;9.20;94.50;;;;;;4952827;29;20043;-46
2022/04/21 02:22:03;;;;;;;8.20;4.30;;;9.20;94.80;;;;;;4953005;29;20054;-48
2022/04/21 02:24:29;;;;;;;6.20;4.32;;;9.10;94.70;;;;;;4952899;28;20122;-46
2022/04/21 02:26:54;;;;;;;4.40;4.00;;;9.20;94.70;;;;;;4952595;29;20082;-44
2022/04/21 02:29:20;;;;;;;6.32;4.60;;;9.20;94.70;;;;;;4953144;28;20506;-47
2022/04/21 02:31:45;;;;;;;4.82;4.30;;;9.20;94.60;;;;;;4953338;28;20039;-47
2022/04/21 02:34:11;;;;;;;3.95;3.63;;;9.20;94.70;;;;;;4956186;29;20106;-48
2022/04/21 02:36:37;;;;;;;4.28;3.65;;;9.20;94.70;;;;;;4956172;29;20118;-46
2022/04/21 02:39:02;;;;;;;4.82;4.43;;;9.20;94.80;;;;;;4955983;28;20155;-45
2022/04/21 02:41:28;;;;;;;7.50;4.55;;;9.20;94.90;;;;;;4956151;28;20082;-44
2022/04/21 02:43:53;;;;;;;5.22;4.35;;;9.10;94.90;;;;;;4956037;29;20046;-49
2022/04/21 02:46:29;;;;;;;7.10;3.97;;;9.10;95.00;;;;;;4956283;28;20051;-45
2022/04/21 02:48:56;;;;;;;6.03;4.13;;;9.10;95.00;;;;;;4954871;29;20024;-45
2022/04/21 02:51:22;;;;;;;7.65;4.15;;;9.10;95.30;;;;;;4956006;28;20031;-46
2022/04/21 02:59:16;;;;;;;4.03;3.65;;;9.00;96.30;;;;;;4955830;29;20026;-47
2022/04/21 03:01:41;;;;;;;4.15;3.70;;;8.90;96.80;;;;;;4955842;29;20015;-46
2022/04/21 03:04:06;;;;;;;4.13;3.40;;;8.90;97.20;;;;;;4955521;29;20110;-46
2022/04/21 03:06:32;;;;;;;6.90;3.60;;;8.80;97.50;;;;;;4955715;29;20038;-47
2022/04/21 03:08:57;;;;;;;5.85;3.42;;;8.70;97.90;;;;;;4955349;29;20035;-47
2022/04/21 03:11:23;;;;;;;3.92;3.60;;;8.50;97.80;;;;;;4955679;28;20491;-46
2022/04/21 03:13:48;;;;;;;5.88;3.83;;;8.50;98.40;;;;;;4955545;28;20117;-47
2022/04/21 03:16:14;;;;;;;3.92;3.47;;;8.40;98.60;;;;;;4955584;28;20515;-46
2022/04/21 03:18:39;;;;;;;6.43;3.70;;;8.40;98.80;;;;;;4955120;29;20027;-45
2022/04/21 03:26:33;;;;;;;6.90;3.88;;;8.30;98.70;;;;;;4955459;29;20034;-46
2022/04/21 03:28:58;;;;;;;3.92;3.50;;;8.30;98.80;;;;;;4954977;29;20027;-46
2022/04/21 03:31:24;;;;;;;7.55;4.15;;;8.30;99.10;;;;;;4955297;29;20027;-47
2022/04/21 03:33:50;;;;;;;6.05;3.97;;;8.20;99.20;;;;;;4955151;29;20049;-46
2022/04/21 03:36:16;;;;;;;4.28;3.72;;;8.30;99.10;;;;;;4955091;28;20042;-47
2022/04/21 03:38:42;;;;;;;8.70;5.05;;;8.30;99.40;;;;;;4954964;28;20023;-49
2022/04/21 03:41:07;;;;;;;6.90;4.60;;;8.30;99.30;;;;;;4970178;28;20038;-47
2022/04/21 03:43:33;;;;;;;5.95;4.63;;;8.40;99.00;;;;;;4954655;28;20530;-44
2022/04/21 03:45:59;;;;;;;5.20;4.38;;;8.50;98.60;;;;;;4955586;28;20042;-45
2022/04/21 03:48:24;;;;;;;5.43;4.43;;;8.50;98.70;;;;;;4955041;28;20066;-46
2022/04/21 03:50:50;;;;;;;6.03;5.28;;;8.50;98.70;;;;;;4955258;29;20227;-46
2022/04/21 03:53:16;;;;;;;5.80;4.55;;;8.50;98.90;;;;;;4955081;29;20039;-49
2022/04/21 03:55:42;;;;;;;6.75;4.50;;;8.50;98.90;;;;;;4954889;28;20097;-48
2022/04/21 03:58:07;;;;;;;10.90;5.95;;;8.50;99.40;;;;;;4954363;28;20031;-46
2022/04/21 04:00:33;;;;;;;6.65;4.53;;;8.50;99.40;;;;;;4954861;29;20611;-47
2022/04/21 04:02:58;;;;;;;6.47;4.25;;;8.50;99.40;;;;;;4954674;29;20390;-45
2022/04/21 04:05:24;;;;;;;5.50;4.55;;;8.60;99.00;;;;;;4969565;28;20518;-48
2022/04/21 04:10:52;;;;;;;5.22;4.72;;;8.60;98.60;;;;;;4954968;28;20038;-47
2022/04/21 04:13:18;;;;;;;7.53;5.30;;;8.60;98.70;;;;;;4954380;28;20028;-46
2022/04/21 04:15:48;;;;;;;8.68;5.65;;;8.50;98.90;;;;;;4954714;28;20367;-45
2022/04/21 04:18:14;;;;;;;6.43;5.10;;;8.30;99.20;;;;;;4954458;28;20456;-46
2022/04/21 04:20:39;;;;;;;10.60;5.25;;;8.30;99.50;;;;;;4954263;29;20059;-48
2022/04/21 04:23:05;;;;;;;8.30;5.18;;;8.30;99.70;;;;;;4954261;28;20031;-46
2022/04/21 04:25:31;;;;;;;7.90;5.70;;;8.20;99.70;;;;;;4954356;29;20028;-47
2022/04/21 04:27:57;;;;;;;6.30;4.60;;;8.20;99.80;;;;;;4953930;29;20078;-47
2022/04/21 04:30:22;;;;;;;10.30;5.20;;;8.20;99.90;;;;;;4954343;28;20474;-51
2022/04/21 04:32:48;;;;;;;8.55;5.20;;;8.20;99.90;;;;;;4953949;28;20098;-49
2022/04/21 04:35:13;;;;;;;6.63;5.30;;;8.30;99.90;;;;;;4954184;29;20031;-49
2022/04/21 04:37:39;;;;;;;7.88;5.47;;;8.20;99.90;;;;;;4953680;28;20035;-48
2022/04/21 04:40:05;;;;;;;8.35;6.03;;;8.20;99.90;;;;;;4953989;29;20487;-49
2022/04/21 04:42:31;;;;;;;6.75;4.90;;;8.20;99.90;;;;;;4954152;28;20027;-48
2022/04/21 04:47:57;;;;;;;9.88;5.97;;;8.20;99.90;;;;;;4951333;28;20570;-52
2022/04/21 04:50:23;;;;;;;11.88;5.70;;;8.10;99.90;;;;;;4964446;28;20047;-46
2022/04/21 04:52:48;;;;;;;11.98;6.38;;;8.10;99.90;;;;;;4953767;29;20122;-45
2022/04/21 04:55:14;;;;;;;6.05;5.47;;;8.00;99.90;;;;;;4953041;28;20039;-47
2022/04/21 04:57:40;;;;;;;8.63;5.55;;;8.00;99.90;;;;;;4947550;28;20032;-50
2022/04/21 05:00:08;;;;;;;13.35;5.93;;;8.00;99.90;;;;;;4967965;28;20093;-47
2022/04/21 05:02:34;;;;;;;10.27;5.78;;;7.90;99.90;;;;;;4959530;28;20458;-46
2022/04/21 05:05:00;;;;;;;7.70;5.90;;;7.80;99.90;;;;;;4953334;28;20193;-46
2022/04/21 05:07:26;;;;;;;12.43;6.22;;;7.80;99.90;;;;;;4952948;29;20550;-46
2022/04/21 05:09:51;;;;;;;9.32;5.88;;;7.80;99.90;;;;;;4953343;29;20031;-49
2022/04/21 05:12:18;;;;;;;8.25;6.35;;;7.80;99.90;;;;;;4953289;29;20035;-48
2022/04/21 05:14:44;;;;;;;11.63;6.30;;;7.80;99.90;;;;;;4960820;28;20542;-45
2022/04/21 05:17:09;;;;;;;9.35;6.38;;;7.90;99.90;;;;;;4959079;28;20118;-45
2022/04/21 05:19:35;;;;;;;10.00;6.57;;;8.00;99.90;;;;;;4953699;29;20415;-48
2022/04/21 05:22:03;;;;;;;7.70;6.45;;;8.10;99.90;;;;;;4952930;28;20130;-47
2022/04/21 05:24:31;;;;;;;7.88;5.65;;;8.20;99.90;;;;;;4953227;28;20050;-53
2022/04/21 05:26:57;;;;;;;11.90;5.72;;;8.30;99.90;;;;;;4955378;28;20471;-47
2022/04/21 05:32:07;;;;;;;7.60;5.88;;;8.70;99.90;;;;;;4961444;28;20041;-47
2022/04/21 05:34:33;;;;;;;7.18;5.80;;;8.90;99.90;;;;;;4953671;28;20031;-46
2022/04/21 05:37:00;;;;;;;6.93;5.57;;;9.10;99.80;;;;;;4953085;28;20120;-47
2022/04/21 05:39:27;;;;;;;12.02;6.40;;;9.20;99.60;;;;;;4953295;28;20484;-44
2022/04/21 05:41:53;;;;;;;6.65;5.25;;;9.30;99.40;;;;;;4968292;28;20082;-46
2022/04/21 05:44:20;;;;;;;8.73;5.95;;;9.30;99.10;;;;;;4972573;28;20402;-48
2022/04/21 05:46:46;;;;;;;6.38;5.55;;;9.30;99.20;;;;;;4965115;28;20111;-45
2022/04/21 05:49:12;;;;;;;11.60;5.95;;;9.50;99.40;;;;;;4952750;28;20479;-47
2022/04/21 05:51:38;;;;;;;6.82;5.05;;;9.60;98.80;;;;;;4953196;29;20034;-46
2022/04/21 05:54:05;;;;;;;8.52;5.40;;;9.70;98.40;;;;;;4953183;28;20368;-47
2022/04/21 05:56:32;;;;;;;7.35;5.60;;;9.80;98.20;;;;;;4953275;28;20037;-46
2022/04/21 05:58:58;;;;;;;7.88;6.10;;;9.80;98.10;;;;;;4952862;29;20019;-49
2022/04/21 06:01:24;;;;;;;10.23;5.70;;;10.00;97.80;;;;;;4952565;28;20466;-47
2022/04/21 06:03:52;;;;;;;8.70;5.40;;;10.10;97.70;;;;;;4975021;23;20051;-42
2022/04/21 06:06:18;;;;;;;6.40;5.72;;;10.00;97.80;;;;;;4954722;28;20047;-43
2022/04/21 06:08:44;;;;;;;7.88;5.85;;;10.10;97.80;;;;;;4956441;28;20070;-42
2022/04/21 06:11:09;;;;;;;9.63;5.60;;;10.20;97.60;;;;;;4958095;29;20442;-45
2022/04/21 06:13:36;;;;;;;8.88;5.13;;;10.40;97.40;;;;;;4960689;28;20027;-43
2022/04/21 06:16:01;;;;;;;8.80;5.65;;;10.80;97.10;;;;;;4960288;28;20027;-48
2022/04/21 06:18:27;;;;;;;5.60;4.95;;;11.00;96.60;;;;;;4958811;29;20447;-43
2022/04/21 06:20:54;;;;;;;5.40;4.85;;;11.60;95.40;;;;;;4959131;29;20031;-44
2022/04/21 06:23:20;;;;;;;6.70;4.75;;;12.00;94.50;;;;;;4958007;28;20114;-46
2022/04/21 06:25:47;;;;;;;6.55;4.70;;;11.90;94.10;;;;;;4957245;28;20026;-49
2022/04/21 06:28:13;;;;;;;11.35;4.60;;;11.90;93.80;;;;;;4956490;29;20029;-45
2022/04/21 06:30:39;;;;;;;5.72;4.60;;;11.90;94.30;;;;;;4956540;29;20028;-42
2022/04/21 06:33:06;;;;;;;11.48;4.65;;;12.00;94.20;;;;;;4971708;28;20447;-45
2022/04/21 06:35:31;;;;;;;7.25;5.00;;;12.10;94.00;;;;;;4956430;28;20027;-41
2022/04/21 06:37:58;;;;;;;6.05;4.45;;;12.10;93.60;;;;;;4956548;29;20115;-44
2022/04/21 06:40:23;;;;;;;8.60;4.88;;;12.10;93.80;;;;;;4956325;28;20028;-44
2022/04/21 06:42:50;;;;;;;6.03;4.95;;;12.10;93.10;;;;;;4956324;29;20027;-45
2022/04/21 06:48:04;;;;;;;6.95;4.28;;;12.50;93.30;;;;;;4956253;28;20042;-40
2022/04/21 06:50:37;;;;;;;5.53;4.55;;;12.90;91.90;;;;;;4956738;28;20487;-42
2022/04/21 06:53:05;;;;;;;4.82;4.20;;;13.30;91.10;;;;;;4957162;28;20024;-44
2022/04/21 06:55:30;;;;;;;6.43;4.10;;;13.60;91.20;;;;;;4956768;28;20078;-44
2022/04/21 06:57:56;;;;;;;9.55;5.18;;;14.10;89.90;;;;;;4955699;29;20494;-44
2022/04/21 07:00:23;;;;;;;5.00;3.95;;;14.70;88.60;;;;;;4956064;29;20034;-44
2022/04/21 07:02:51;;;;;;;7.88;4.93;;;15.00;87.10;;;;;;4956186;28;20019;-43
2022/04/21 07:05:17;;;;;;;6.53;4.70;;;15.20;86.70;;;;;;4955682;28;20039;-44
2022/04/21 07:07:43;;;;;;;5.90;4.22;;;15.30;84.20;;;;;;4970356;28;20110;-47
2022/04/21 07:10:10;;;;;;;5.22;4.68;;;15.00;85.00;;;;;;4955726;28;20023;-47
2022/04/21 07:12:36;;;;;;;7.30;4.45;;;14.30;85.70;;;;;;4955413;29;20024;-49
2022/04/21 07:15:07;;;;;;;6.75;4.70;;;13.80;89.10;;;;;;4956029;28;20039;-46
2022/04/21 07:17:33;;;;;;;8.40;4.47;;;13.90;89.20;;;;;;4954720;28;20106;-47
2022/04/21 07:19:59;;;;;;;11.95;4.70;;;14.20;87.80;;;;;;4954691;29;20031;-42
2022/04/21 07:22:25;;;;;;;6.45;4.18;;;14.20;87.10;;;;;;4955716;28;20443;-48
2022/04/21 07:24:55;;;;;;;7.97;4.28;;;14.00;87.50;;;;;;4955500;28;20094;-47
2022/04/21 07:27:22;;;;;;;9.15;4.90;;;13.90;88.80;;;;;;4954659;28;20062;-47
2022/04/21 07:29:48;;;;;;;6.80;4.78;;;14.20;89.20;;;;;;4956364;28;20031;-39
2022/04/21 07:32:14;;;;;;;8.52;4.78;;;14.50;86.60;;;;;;4961803;28;20090;-41
2022/04/21 07:34:40;;;;;;;10.65;4.53;;;14.60;85.30;;;;;;4955108;28;20059;-46
2022/04/21 07:37:06;;;;;;;10.80;4.50;;;14.60;86.80;;;;;;4954823;29;20110;-44
2022/04/21 07:39:32;;;;;;;8.05;4.18;;;14.80;85.50;;;;;;4955026;28;20042;-41
2022/04/21 07:41:58;;;;;;;9.73;4.53;;;15.00;85.30;;;;;;4955087;28;20023;-49
2022/04/21 07:44:26;;;;;;;8.80;4.05;;;15.20;84.00;;;;;;4969822;28;20050;-47
2022/04/21 07:46:52;;;;;;;12.27;4.50;;;15.70;83.20;;;;;;4962998;28;20042;-43
2022/04/21 07:49:51;;;;;;;6.32;4.30;;;16.10;81.20;;;;;;4957480;28;20031;-46
2022/04/21 07:54:54;;;;;;;8.43;4.50;;;15.70;80.90;;;;;;4967608;28;20077;-45
2022/04/21 07:57:20;;;;;;;4.57;4.10;;;15.60;80.40;;;;;;4973812;28;20434;-48
2022/04/21 07:59:47;;;;;;;4.47;4.07;;;15.60;79.90;;;;;;4974024;28;20019;-46
2022/04/21 08:02:13;;;;;;;9.07;4.70;;;15.30;81.10;;;;;;4974049;28;20044;-49
2022/04/21 08:04:39;;;;;;;6.60;4.97;;;14.90;81.50;;;;;;4973694;28;20034;-45
2022/04/21 08:07:04;;;;;;;6.63;4.32;;;14.50;82.90;;;;;;4960852;28;20031;-52
2022/04/21 08:09:30;;;;;;;6.20;4.93;;;14.20;83.80;;;;;;4954504;29;20062;-45
2022/04/21 08:11:56;;;;;;;4.68;4.03;;;14.00;86.00;;;;;;4969340;28;20031;-40
2022/04/21 08:14:23;;;;;;;4.78;4.25;;;13.90;86.20;;;;;;4954521;28;20027;-44
2022/04/21 08:16:48;;;;;;;9.00;4.47;;;13.80;87.00;;;;;;4954274;28;20070;-45
2022/04/21 08:19:14;;;;;;;6.57;4.32;;;13.40;87.60;;;;;;4953627;29;20110;-46
2022/04/21 08:21:39;;;;;;;6.53;4.22;;;13.00;88.60;;;;;;4954427;28;20038;-42
2022/04/21 08:35:01;;;;;;;11.43;4.00;;;12.90;89.10;;;;;;4961952;28;20074;-45
2022/04/21 08:37:27;;;;;;;9.18;4.47;;;12.90;90.00;;;;;;4977409;28;20054;-44
2022/04/21 08:39:54;;;;;;;3.95;3.65;;;13.00;89.40;;;;;;4973673;28;20015;-47
2022/04/21 08:42:21;;;;;;;9.40;4.20;;;13.10;89.20;;;;;;4973414;28;20053;-46
2022/04/21 08:44:49;;;;;;;11.05;3.78;;;13.20;88.80;;;;;;4973207;28;20023;-43
2022/04/21 08:47:18;;;;;;;6.00;3.97;;;13.30;88.10;;;;;;4973100;28;20037;-44
2022/04/21 08:49:47;;;;;;;6.03;3.70;;;13.50;88.20;;;;;;4973260;28;20274;-43
2022/04/21 08:52:14;;;;;;;4.72;3.42;;;14.10;86.50;;;;;;4973162;28;20077;-46
2022/04/21 08:54:41;;;;;;;7.63;4.93;;;15.10;84.10;;;;;;4972821;28;20117;-39
2022/04/21 08:57:09;;;;;;;4.90;3.85;;;15.20;82.10;;;;;;4971535;28;20126;-45
2022/04/21 08:59:35;;;;;;;5.25;3.90;;;15.10;81.80;;;;;;4971611;28;20042;-45
2022/04/21 09:02:01;;;;;;;6.25;3.63;;;14.80;82.50;;;;;;4973245;28;20027;-45
2022/04/21 09:04:28;;;;;;;6.95;4.15;;;14.40;83.70;;;;;;4973027;28;20037;-46
2022/04/21 09:06:54;;;;;;;7.93;4.05;;;14.20;84.50;;;;;;4953441;28;20032;-40
2022/04/21 09:09:21;;;;;;;4.53;3.63;;;14.10;85.60;;;;;;4953566;28;20510;-45
2022/04/21 09:11:51;;;;;;;5.88;4.03;;;13.90;86.00;;;;;;4962739;28;20463;-43
2022/04/21 09:14:17;;;;;;;5.25;3.42;;;13.80;86.20;;;;;;4973016;28;20456;-43
2022/04/21 09:16:43;;;;;;;4.80;3.88;;;14.10;86.00;;;;;;4972674;28;20030;-40
2022/04/21 09:19:09;;;;;;;5.38;3.90;;;14.30;85.90;;;;;;4957056;28;20031;-44
2022/04/21 09:21:36;;;;;;;41.05;26.98;;;14.60;84.60;;;;;;4953668;28;20027;-44
2022/04/21 09:24:18;;;;;;;17.95;11.45;;;14.70;84.80;;;;;;4954644;28;20034;-50
2022/04/21 09:26:47;;;;;;;5.70;5.13;;;15.00;83.20;;;;;;4972867;28;20023;-45
2022/04/21 09:29:32;;;;;;;7.10;3.70;;;15.20;82.60;;;;;;4967700;28;20456;-45
2022/04/21 09:31:59;;;;;;;4.95;3.90;;;15.00;83.10;;;;;;4944946;29;20451;-45
2022/04/21 09:34:25;;;;;;;8.00;3.95;;;15.40;83.40;;;;;;4953432;28;20027;-45
2022/04/21 09:36:56;;;;;;;6.25;3.90;;;15.30;82.10;;;;;;4953046;29;20035;-41
2022/04/21 09:39:22;;;;;;;4.90;3.90;;;15.50;82.10;;;;;;4953337;28;20090;-48
2022/04/21 09:41:54;;;;;;;7.32;3.50;;;15.30;83.00;;;;;;4955517;28;20027;-42
2022/04/21 09:47:30;;;;;;;9.57;3.45;;;15.40;83.30;;;;;;4954336;28;20091;-47
2022/04/21 09:49:57;;;;;;;6.47;5.25;;;15.80;82.00;;;;;;4955649;28;20031;-43
2022/04/21 09:52:27;;;;;;;5.63;4.15;;;16.00;80.50;;;;;;4957174;28;20098;-48
2022/04/21 09:54:53;;;;;;;4.03;3.63;;;16.10;80.30;;;;;;4956622;28;20471;-48
2022/04/21 09:57:29;;;;;;;4.35;3.47;;;16.20;80.00;;;;;;4956971;28;20027;-46
2022/04/21 09:59:56;;;;;;;5.85;3.42;;;15.70;79.00;;;;;;4956533;29;20026;-42
2022/04/21 10:02:22;;;;;;;5.25;2.95;;;15.70;80.00;;;;;;4957214;28;20450;-43
2022/04/21 10:04:49;;;;;;;5.40;3.30;;;15.60;79.60;;;;;;4956578;29;20031;-45
2022/04/21 10:07:17;;;;;;;4.47;3.20;;;15.90;79.20;;;;;;4967889;28;20030;-45
2022/04/21 10:09:42;;;;;;;6.50;3.25;;;15.80;78.70;;;;;;4975975;28;20025;-45
2022/04/21 10:12:09;;;;;;;3.58;3.28;;;15.80;79.60;;;;;;4976280;28;20031;-44
2022/04/21 10:14:35;;;;;;;5.93;3.88;;;15.90;78.60;;;;;;4964128;28;20031;-47
2022/04/21 10:17:02;;;;;;;21.42;13.68;;;15.50;78.40;;;;;;4940421;29;20034;-42
2022/04/21 10:19:28;;;;;;;18.60;6.85;;;15.60;80.60;;;;;;4954826;28;20023;-46
2022/04/21 10:21:56;;;;;;;4.97;3.00;;;15.80;78.90;;;;;;4975993;28;20090;-46
2022/04/21 10:24:24;;;;;;;7.00;3.10;;;15.60;79.40;;;;;;4968149;28;20027;-42
2022/04/21 10:26:49;;;;;;;7.35;2.85;;;15.80;78.50;;;;;;4956222;28;20031;-47
2022/04/21 10:29:17;;;;;;;2.58;2.38;;;15.70;76.60;;;;;;4955061;28;20407;-42
2022/04/21 10:32:00;;;;;;;3.92;2.80;;;15.50;76.90;;;;;;4956421;29;20031;-44
2022/04/21 10:34:38;;;;;;;4.10;2.65;;;15.60;77.80;;;;;;4956465;28;20028;-47
2022/04/21 10:37:15;;;;;;;6.05;2.97;;;15.90;78.50;;;;;;4955956;29;20030;-44
2022/04/21 10:40:01;;;;;;;4.93;2.65;;;15.70;76.50;;;;;;4952111;28;20029;-43
2022/04/21 10:42:27;;;;;;;;;;;15.80;77.20;;;;;;4972429;28;20035;-46
2022/04/21 10:44:56;;;;;;;5.15;2.83;;;15.70;78.00;;;;;;4958994;28;19913;-49
2022/04/21 10:47:38;;;;;;;3.88;2.78;;;15.80;78.80;;;;;;4956032;28;20387;-43
2022/04/21 10:50:19;;;;;;;5.38;2.75;;;15.60;76.70;;;;;;4955157;28;20028;-41
2022/04/21 10:58:32;;;;;;;4.28;2.25;;;15.50;77.30;;;;;;4975057;28;20529;-43
2022/04/21 11:01:14;;;;;;;4.85;2.53;;;15.60;77.80;;;;;;4975597;28;20031;-38
2022/04/21 11:03:41;;;;;;;3.63;2.28;;;15.70;77.80;;;;;;4975111;28;20113;-37
2022/04/21 11:06:14;;;;;;;3.92;2.92;;;15.80;77.30;;;;;;4975039;28;20077;-50
2022/04/21 11:08:41;;;;;;;4.35;2.55;;;15.60;77.10;;;;;;4964131;28;20035;-44
2022/04/21 11:11:06;;;;;;;2.90;2.22;;;15.50;77.30;;;;;;4955096;28;20031;-45
2022/04/21 11:13:52;;;;;;;4.53;2.92;;;15.50;78.80;;;;;;4955775;28;20438;-43
2022/04/21 11:16:45;;;;;;;2.67;2.33;;;15.50;78.10;;;;;;4955614;28;20118;-52
2022/04/21 11:19:34;;;;;;;5.07;2.53;;;15.50;77.70;;;;;;4955109;28;20070;-44
2022/04/21 11:22:11;;;;;;;10.00;2.42;;;15.50;77.60;;;;;;4949570;28;20043;-42
2022/04/21 11:24:55;;;;;;;3.47;2.63;;;15.50;77.80;;;;;;4955261;28;20030;-44
2022/04/21 11:27:22;;;;;;;4.97;2.45;;;15.60;76.80;;;;;;4955127;28;20487;-45
2022/04/21 11:29:47;;;;;;;4.45;2.13;;;15.40;78.20;;;;;;4955235;28;20031;-47
2022/04/21 11:32:18;;;;;;;2.75;2.53;;;15.40;77.80;;;;;;4953129;28;20050;-43
2022/04/21 11:35:05;;;;;;;2.50;2.30;;;15.30;78.60;;;;;;4954820;28;20035;-38
2022/04/21 11:37:46;;;;;;;2.38;2.17;;;15.40;78.80;;;;;;4954858;28;20035;-46
2022/04/21 11:40:38;;;;;;;5.70;2.65;;;15.40;79.40;;;;;;4955044;28;20019;-42
2022/04/21 11:43:25;;;;;;;2.88;2.38;;;15.60;79.70;;;;;;4954659;28;20574;-47
2022/04/21 11:45:55;;;;;;;3.63;2.45;;;15.70;78.80;;;;;;4954768;28;20055;-49
2022/04/21 11:48:26;;;;;;;2.78;2.58;;;15.70;79.10;;;;;;4955007;28;20123;-51
2022/04/21 11:50:53;;;;;;;3.45;2.38;;;15.70;79.00;;;;;;4955018;28;20032;-49
2022/04/21 11:53:19;;;;;;;6.45;2.50;;;15.80;79.10;;;;;;4955049;28;20411;-47
2022/04/21 11:55:45;;;;;;;4.57;2.45;;;15.70;78.70;;;;;;4969736;28;20027;-39
2022/04/21 11:58:12;;;;;;;4.25;2.80;;;15.60;80.00;;;;;;4954652;28;20086;-49
2022/04/21 12:08:50;;;;;;;7.80;2.95;;;15.60;79.50;;;;;;4934569;29;20034;-48
2022/04/21 12:11:18;;;;;;;6.05;2.88;;;15.50;79.40;;;;;;4934222;29;20023;-49
2022/04/21 12:13:45;;;;;;;43.55;27.25;;;15.60;80.20;;;;;;4935492;29;20028;-46
2022/04/21 12:16:34;;;;;;;78.95;41.15;;;15.90;80.80;;;;;;4935767;29;20027;-49
2022/04/21 12:19:29;;;;;;;5.97;2.88;;;16.00;78.50;;;;;;4933874;29;20032;-47
2022/04/21 12:21:57;;;;;;;3.47;2.60;;;16.00;78.90;;;;;;4925437;29;20408;-45
2022/04/21 12:24:45;;;;;;;9.05;2.85;;;16.00;79.60;;;;;;4935175;29;20082;-49
2022/04/21 12:27:13;;;;;;;5.15;2.92;;;16.20;79.10;;;;;;4935034;29;20369;-50
2022/04/21 12:29:58;;;;;;;3.80;2.70;;;16.20;79.00;;;;;;4933782;29;20023;-48
2022/04/21 12:32:29;;;;;;;4.40;2.80;;;16.40;80.20;;;;;;4934105;29;20024;-46
2022/04/21 12:34:58;;;;;;;4.55;2.60;;;16.40;78.30;;;;;;4934991;29;20035;-48
2022/04/21 12:40:38;;;;;;;3.40;2.25;;;16.30;79.40;;;;;;4935435;29;20034;-47
2022/04/21 12:43:04;;;;;;;7.03;2.70;;;16.20;79.60;;;;;;4935346;29;20035;-45
2022/04/21 12:45:30;;;;;;;11.00;2.53;;;16.20;80.10;;;;;;4935433;29;20407;-49
2022/04/21 12:47:58;;;;;;;3.15;2.47;;;16.30;78.70;;;;;;4934649;29;20389;-49
2022/04/21 12:50:24;;;;;;;2.42;2.22;;;16.20;78.70;;;;;;4933531;29;20427;-46
2022/04/21 12:52:50;;;;;;;5.00;2.30;;;16.10;78.90;;;;;;4934867;29;20051;-48
2022/04/21 12:55:22;;;;;;;6.28;2.50;;;16.00;79.10;;;;;;4934663;29;20477;-46
2022/04/21 12:58:05;;;;;;;3.70;2.50;;;15.80;79.20;;;;;;4934359;29;20053;-49
2022/04/21 13:00:32;;;;;;;6.35;2.20;;;15.90;78.50;;;;;;4934891;29;20459;-50
2022/04/21 13:02:57;;;;;;;7.85;3.08;;;16.00;79.50;;;;;;4934527;29;20395;-48
2022/04/21 13:05:23;;;;;;;2.83;2.47;;;16.00;79.60;;;;;;4934499;29;20038;-48
2022/04/21 13:07:48;;;;;;;4.25;2.80;;;15.90;79.70;;;;;;4934242;29;20063;-48
2022/04/21 13:10:14;;;;;;;5.10;2.60;;;16.00;79.70;;;;;;4933430;29;20031;-48
2022/04/21 13:12:39;;;;;;;5.75;2.70;;;16.10;80.40;;;;;;4933147;29;20030;-48
2022/04/21 13:15:05;;;;;;;4.82;2.88;;;16.10;79.70;;;;;;4934147;29;20162;-50
2022/04/21 13:17:31;;;;;;;5.70;2.63;;;16.10;80.60;;;;;;4933682;29;20480;-50
2022/04/21 13:19:57;;;;;;;3.88;2.50;;;16.20;79.20;;;;;;4934176;29;20032;-47
2022/04/21 13:22:22;;;;;;;4.40;2.55;;;16.20;78.50;;;;;;4934286;29;20024;-48
2022/04/21 13:24:48;;;;;;;5.97;2.55;;;16.10;79.10;;;;;;4934330;29;20016;-46
2022/04/21 13:27:16;;;;;;;104.70;65.82;;;16.10;78.60;;;;;;4933904;29;20032;-49
2022/04/21 13:29:43;;;;;;;61.15;38.00;;;16.20;79.30;;;;;;4934095;29;20035;-47
2022/04/21 13:34:53;;;;;;;6.68;2.78;;;16.20;79.10;;;;;;4933991;29;20423;-46
2022/04/21 13:37:19;;;;;;;3.28;2.35;;;16.20;79.20;;;;;;4932440;29;20039;-48
2022/04/21 13:39:44;;;;;;;4.00;2.58;;;16.20;79.60;;;;;;4933944;29;20034;-51
2022/04/21 13:42:10;;;;;;;4.95;2.60;;;16.30;79.40;;;;;;4933627;29;20111;-46
2022/04/21 13:44:36;;;;;;;5.43;2.20;;;16.40;78.70;;;;;;4933744;29;20083;-47
2022/04/21 13:47:03;;;;;;;2.17;2.05;;;16.40;79.10;;;;;;4933836;29;20042;-49
2022/04/21 13:49:28;;;;;;;6.53;2.45;;;16.20;78.90;;;;;;4932615;29;20086;-49
2022/04/21 13:51:54;;;;;;;4.45;2.10;;;16.30;79.00;;;;;;4934127;29;20028;-46
2022/04/21 13:54:20;;;;;;;3.83;2.55;;;16.20;78.80;;;;;;4933932;29;20040;-46
2022/04/21 13:56:47;;;;;;;4.68;2.38;;;16.10;79.40;;;;;;4934010;29;20094;-45
2022/04/21 13:59:13;;;;;;;5.78;2.22;;;16.20;79.10;;;;;;4933614;29;20024;-49
2022/04/21 14:01:39;;;;;;;3.70;2.25;;;16.20;79.60;;;;;;4948753;28;20555;-48